sensor_id;sensor_type;location;lat;lon;timestamp;pressure;altitude;pressure_sealevel;temperature;humidity
46942;BME280;32676;52.630;4.896;2023-02-18T00:00:06;103202.47;;;9.43;82.99
46942;BME280;32676;52.630;4.896;2023-02-18T00:02:35;103219.13;;;9.48;83.21
46942;BME280;32676;52.630;4.896;2023-02-18T00:05:02;103219.13;;;9.49;83.17
46942;BME280;32676;52.630;4.896;2023-02-18T00:07:32;103229.69;;;9.52;83.57
46942;BME280;32676;52.630;4.896;2023-02-18T00:09:59;103243.72;;;9.56;83.53
46942;BME280;32676;52.630;4.896;2023-02-18T00:12:26;103250.72;;;9.58;83.40
46942;BME280;32676;52.630;4.896;2023-02-18T00:14:54;103238.50;;;9.57;83.38
46942;BME280;32676;52.630;4.896;2023-02-18T00:17:20;103245.47;;;9.55;83.36
46942;BME280;32676;52.630;4.896;2023-02-18T00:19:49;103254.28;;;9.60;83.12
46942;BME280;32676;52.630;4.896;2023-02-18T00:22:17;103260.41;;;9.61;83.12
46942;BME280;32676;52.630;4.896;2023-02-18T00:24:44;103245.47;;;9.58;83.10
46942;BME280;32676;52.630;4.896;2023-02-18T00:27:12;103247.25;;;9.59;83.07
46942;BME280;32676;52.630;4.896;2023-02-18T00:29:39;103254.28;;;9.60;82.92
46942;BME280;32676;52.630;4.896;2023-02-18T00:32:05;103263.06;;;9.63;82.84
46942;BME280;32676;52.630;4.896;2023-02-18T00:34:32;103266.56;;;9.65;82.64
46942;BME280;32676;52.630;4.896;2023-02-18T00:37:00;103267.41;;;9.64;82.65
46942;BME280;32676;52.630;4.896;2023-02-18T00:39:29;103265.63;;;9.58;82.37
46942;BME280;32676;52.630;4.896;2023-02-18T00:41:56;103275.34;;;9.67;82.51
46942;BME280;32676;52.630;4.896;2023-02-18T00:44:25;103269.19;;;9.65;82.55
46942;BME280;32676;52.630;4.896;2023-02-18T00:46:51;103275.34;;;9.67;82.51
46942;BME280;32676;52.630;4.896;2023-02-18T00:49:20;103271.81;;;9.65;82.72
46942;BME280;32676;52.630;4.896;2023-02-18T00:51:47;103264.78;;;9.64;83.10
46942;BME280;32676;52.630;4.896;2023-02-18T00:54:16;103244.66;;;9.61;83.43
46942;BME280;32676;52.630;4.896;2023-02-18T00:56:42;103234.97;;;9.58;83.64
46942;BME280;32676;52.630;4.896;2023-02-18T00:59:08;103221.78;;;9.51;84.04
46942;BME280;32676;52.630;4.896;2023-02-18T01:01:35;103213.94;;;9.52;84.49
46942;BME280;32676;52.630;4.896;2023-02-18T01:04:02;103206.91;;;9.51;84.69
46942;BME280;32676;52.630;4.896;2023-02-18T01:06:28;103184.06;;;9.41;85.22
46942;BME280;32676;52.630;4.896;2023-02-18T01:08:55;103174.50;;;9.45;85.41
46942;BME280;32676;52.630;4.896;2023-02-18T01:11:23;103164.81;;;9.42;85.49
46942;BME280;32676;52.630;4.896;2023-02-18T01:13:50;103154.31;;;9.39;85.65
46942;BME280;32676;52.630;4.896;2023-02-18T01:16:17;103130.59;;;9.28;86.11
46942;BME280;32676;52.630;4.896;2023-02-18T01:18:44;103120.97;;;9.29;86.09
46942;BME280;32676;52.630;4.896;2023-02-18T01:21:10;103128.00;;;9.33;86.19
46942;BME280;32676;52.630;4.896;2023-02-18T01:23:38;103123.63;;;9.32;86.13
46942;BME280;32676;52.630;4.896;2023-02-18T01:26:05;103121.00;;;9.32;85.97
46942;BME280;32676;52.630;4.896;2023-02-18T01:28:34;103117.50;;;9.30;86.03
46942;BME280;32676;52.630;4.896;2023-02-18T01:31:04;103106.97;;;9.27;85.98
46942;BME280;32676;52.630;4.896;2023-02-18T01:33:32;103095.53;;;9.21;85.78
46942;BME280;32676;52.630;4.896;2023-02-18T01:35:59;103092.97;;;9.28;85.95
46942;BME280;32676;52.630;4.896;2023-02-18T01:38:25;103085.09;;;9.25;85.88
46942;BME280;32676;52.630;4.896;2023-02-18T01:40:52;103076.31;;;9.22;86.12
46942;BME280;32676;52.630;4.896;2023-02-18T01:43:19;103071.03;;;9.18;86.19
46942;BME280;32676;52.630;4.896;2023-02-18T01:45:51;103062.31;;;9.19;86.40
46942;BME280;32676;52.630;4.896;2023-02-18T01:48:21;103054.41;;;9.17;86.64
46942;BME280;32676;52.630;4.896;2023-02-18T01:50:52;103045.66;;;9.15;86.82
46942;BME280;32676;52.630;4.896;2023-02-18T01:53:23;103031.66;;;9.13;87.04
46942;BME280;32676;52.630;4.896;2023-02-18T01:55:52;103029.88;;;9.12;87.24
46942;BME280;32676;52.630;4.896;2023-02-18T01:58:19;103026.38;;;9.10;87.39
46942;BME280;32676;52.630;4.896;2023-02-18T02:00:46;103023.72;;;9.09;87.76
46942;BME280;32676;52.630;4.896;2023-02-18T02:03:14;103010.59;;;9.07;87.72
46942;BME280;32676;52.630;4.896;2023-02-18T02:05:40;102998.28;;;9.00;87.74
46942;BME280;32676;52.630;4.896;2023-02-18T02:08:07;102998.31;;;9.03;88.03
46942;BME280;32676;52.630;4.896;2023-02-18T02:10:43;102984.31;;;9.01;88.21
46942;BME280;32676;52.630;4.896;2023-02-18T02:13:20;102975.56;;;8.99;88.34
46942;BME280;32676;52.630;4.896;2023-02-18T02:15:54;102975.56;;;8.99;88.57
46942;BME280;32676;52.630;4.896;2023-02-18T02:18:37;102972.91;;;8.96;88.92
46942;BME280;32676;52.630;4.896;2023-02-18T02:21:27;102954.56;;;8.96;88.69
46942;BME280;32676;52.630;4.896;2023-02-18T02:27:16;102960.66;;;8.96;89.20
46942;BME280;32676;52.630;4.896;2023-02-18T02:36:10;102945.72;;;8.88;89.53
46942;BME280;32676;52.630;4.896;2023-02-18T02:38:47;102953.66;;;8.94;89.72
46942;BME280;32676;52.630;4.896;2023-02-18T02:41:24;102968.56;;;8.98;89.70
46942;BME280;32676;52.630;4.896;2023-02-18T02:43:56;102968.56;;;8.98;89.85
46942;BME280;32676;52.630;4.896;2023-02-18T02:46:30;102968.50;;;8.95;89.93
46942;BME280;32676;52.630;4.896;2023-02-18T02:49:09;102962.38;;;8.90;89.92
46942;BME280;32676;52.630;4.896;2023-02-18T02:51:42;102977.31;;;9.00;90.21
46942;BME280;32676;52.630;4.896;2023-02-18T02:54:13;102972.91;;;8.96;90.30
46942;BME280;32676;52.630;4.896;2023-02-18T02:56:40;102979.09;;;9.01;90.26
46942;BME280;32676;52.630;4.896;2023-02-18T02:59:10;103003.59;;;9.06;90.27
46942;BME280;32676;52.630;4.896;2023-02-18T03:01:48;102990.41;;;9.00;90.51
46942;BME280;32676;52.630;4.896;2023-02-18T03:04:36;103029.00;;;9.12;90.63
46942;BME280;32676;52.630;4.896;2023-02-18T03:07:28;103047.41;;;9.16;90.90
46942;BME280;32676;52.630;4.896;2023-02-18T03:10:11;103036.91;;;9.13;91.14
46942;BME280;32676;52.630;4.896;2023-02-18T03:12:46;103056.16;;;9.18;91.28
46942;BME280;32676;52.630;4.896;2023-02-18T03:15:21;103050.91;;;9.18;91.35
46942;BME280;32676;52.630;4.896;2023-02-18T03:17:54;103056.16;;;9.18;91.68
46942;BME280;32676;52.630;4.896;2023-02-18T03:20:26;103053.53;;;9.18;91.76
46942;BME280;32676;52.630;4.896;2023-02-18T03:22:58;103022.78;;;9.02;91.92
46942;BME280;32676;52.630;4.896;2023-02-18T03:25:27;103050.91;;;9.15;92.04
46942;BME280;32676;52.630;4.896;2023-02-18T03:27:56;103056.16;;;9.18;92.13
46942;BME280;32676;52.630;4.896;2023-02-18T03:30:26;103053.53;;;9.18;91.95
46942;BME280;32676;52.630;4.896;2023-02-18T03:32:56;103057.91;;;9.19;92.15
46942;BME280;32676;52.630;4.896;2023-02-18T03:35:24;103059.69;;;9.20;92.14
46942;BME280;32676;52.630;4.896;2023-02-18T03:37:56;103072.81;;;9.22;92.20
46942;BME280;32676;52.630;4.896;2023-02-18T03:40:26;103070.19;;;9.23;92.25
46942;BME280;32676;52.630;4.896;2023-02-18T03:42:56;103075.44;;;9.23;92.35
46942;BME280;32676;52.630;4.896;2023-02-18T03:45:22;103082.47;;;9.25;92.45
46942;BME280;32676;52.630;4.896;2023-02-18T03:47:49;103089.47;;;9.24;92.37
46942;BME280;32676;52.630;4.896;2023-02-18T03:50:16;103099.97;;;9.29;92.54
46942;BME280;32676;52.630;4.896;2023-02-18T03:52:42;103105.28;;;9.32;92.59
46942;BME280;32676;52.630;4.896;2023-02-18T03:55:10;103106.13;;;9.31;92.42
46942;BME280;32676;52.630;4.896;2023-02-18T03:57:37;103114.88;;;9.33;92.47
46942;BME280;32676;52.630;4.896;2023-02-18T04:00:07;103120.16;;;9.34;92.62
46942;BME280;32676;52.630;4.896;2023-02-18T04:02:35;103129.81;;;9.37;92.62
46942;BME280;32676;52.630;4.896;2023-02-18T04:05:01;103131.56;;;9.38;92.49
46942;BME280;32676;52.630;4.896;2023-02-18T04:07:28;103138.56;;;9.39;92.67
46942;BME280;32676;52.630;4.896;2023-02-18T04:09:54;103131.56;;;9.38;92.67
46942;BME280;32676;52.630;4.896;2023-02-18T04:12:22;103128.91;;;9.35;92.60
46942;BME280;32676;52.630;4.896;2023-02-18T04:14:49;103128.91;;;9.36;92.61
46942;BME280;32676;52.630;4.896;2023-02-18T04:17:15;103123.63;;;9.32;92.56
46942;BME280;32676;52.630;4.896;2023-02-18T04:19:42;103109.63;;;9.33;92.79
46942;BME280;32676;52.630;4.896;2023-02-18T04:22:09;103103.50;;;9.31;92.72
46942;BME280;32676;52.630;4.896;2023-02-18T04:24:36;103084.19;;;9.26;92.77
46942;BME280;32676;52.630;4.896;2023-02-18T04:27:02;103076.34;;;9.26;92.51
46942;BME280;32676;52.630;4.896;2023-02-18T04:29:30;103068.47;;;9.22;92.73
46942;BME280;32676;52.630;4.896;2023-02-18T04:31:57;103052.69;;;9.19;92.72
46942;BME280;32676;52.630;4.896;2023-02-18T04:34:24;103034.25;;;9.15;92.72
46942;BME280;32676;52.630;4.896;2023-02-18T04:36:50;103038.66;;;9.17;92.72
46942;BME280;32676;52.630;4.896;2023-02-18T04:39:17;103043.91;;;9.17;92.93
46942;BME280;32676;52.630;4.896;2023-02-18T04:41:43;103039.53;;;9.16;92.90
46942;BME280;32676;52.630;4.896;2023-02-18T04:44:10;103029.03;;;9.13;92.77
46942;BME280;32676;52.630;4.896;2023-02-18T04:46:38;103042.16;;;9.18;92.95
46942;BME280;32676;52.630;4.896;2023-02-18T04:49:04;103037.81;;;9.17;93.08
46942;BME280;32676;52.630;4.896;2023-02-18T04:51:31;103038.66;;;9.17;92.94
46942;BME280;32676;52.630;4.896;2023-02-18T04:53:57;103040.41;;;9.18;93.03
46942;BME280;32676;52.630;4.896;2023-02-18T04:56:24;103053.56;;;9.20;93.11
46942;BME280;32676;52.630;4.896;2023-02-18T04:58:50;103028.09;;;9.11;93.03
46942;BME280;32676;52.630;4.896;2023-02-18T05:01:17;103035.16;;;9.15;93.20
46942;BME280;32676;52.630;4.896;2023-02-18T05:03:45;103044.78;;;9.18;93.24
46942;BME280;32676;52.630;4.896;2023-02-18T05:06:11;103030.72;;;9.08;93.16
46942;BME280;32676;52.630;4.896;2023-02-18T05:08:38;103054.44;;;9.20;93.44
46942;BME280;32676;52.630;4.896;2023-02-18T05:11:05;103046.59;;;9.20;93.35
46942;BME280;32676;52.630;4.896;2023-02-18T05:13:32;103049.19;;;9.20;93.46
46942;BME280;32676;52.630;4.896;2023-02-18T05:15:59;103049.16;;;9.17;93.25
46942;BME280;32676;52.630;4.896;2023-02-18T05:18:25;103061.47;;;9.25;93.17
46942;BME280;32676;52.630;4.896;2023-02-18T05:20:53;103071.09;;;9.26;93.19
46942;BME280;32676;52.630;4.896;2023-02-18T05:23:20;103078.09;;;9.27;93.25
46942;BME280;32676;52.630;4.896;2023-02-18T05:25:46;103089.50;;;9.29;93.38
46942;BME280;32676;52.630;4.896;2023-02-18T05:28:13;103091.25;;;9.30;93.36
46942;BME280;32676;52.630;4.896;2023-02-18T05:30:39;103088.63;;;9.28;93.21
46942;BME280;32676;52.630;4.896;2023-02-18T05:33:06;103082.50;;;9.29;93.10
46942;BME280;32676;52.630;4.896;2023-02-18T05:35:32;103096.50;;;9.30;93.12
46942;BME280;32676;52.630;4.896;2023-02-18T05:38:00;103083.34;;;9.27;93.01
46942;BME280;32676;52.630;4.896;2023-02-18T05:40:27;103093.88;;;9.31;92.93
46942;BME280;32676;52.630;4.896;2023-02-18T05:42:53;103083.38;;;9.30;93.03
46942;BME280;32676;52.630;4.896;2023-02-18T05:45:20;103083.38;;;9.28;92.79
46942;BME280;32676;52.630;4.896;2023-02-18T05:47:47;103079.00;;;9.29;92.87
46942;BME280;32676;52.630;4.896;2023-02-18T05:50:13;103085.13;;;9.29;92.67
46942;BME280;32676;52.630;4.896;2023-02-18T05:52:40;103080.78;;;9.30;92.62
46942;BME280;32676;52.630;4.896;2023-02-18T05:55:08;103076.38;;;9.29;92.58
46942;BME280;32676;52.630;4.896;2023-02-18T05:57:34;103074.59;;;9.28;92.48
46942;BME280;32676;52.630;4.896;2023-02-18T06:00:01;103070.19;;;9.23;92.53
46942;BME280;32676;52.630;4.896;2023-02-18T06:02:28;103060.59;;;9.24;92.33
46942;BME280;32676;52.630;4.896;2023-02-18T06:04:56;103065.84;;;9.26;92.10
46942;BME280;32676;52.630;4.896;2023-02-18T06:07:22;103064.94;;;9.23;92.21
46942;BME280;32676;52.630;4.896;2023-02-18T06:09:49;103064.94;;;9.23;92.18
46942;BME280;32676;52.630;4.896;2023-02-18T06:12:17;103067.59;;;9.27;92.06
46942;BME280;32676;52.630;4.896;2023-02-18T06:14:43;103065.84;;;9.27;92.08
46942;BME280;32676;52.630;4.896;2023-02-18T06:17:11;103069.38;;;9.26;92.11
46942;BME280;32676;52.630;4.896;2023-02-18T06:19:38;103061.47;;;9.25;92.24
46942;BME280;32676;52.630;4.896;2023-02-18T06:22:05;103064.13;;;9.26;92.11
46942;BME280;32676;52.630;4.896;2023-02-18T06:24:32;103064.13;;;9.26;91.93
46942;BME280;32676;52.630;4.896;2023-02-18T06:26:59;103067.59;;;9.27;92.08
46942;BME280;32676;52.630;4.896;2023-02-18T06:29:27;103057.97;;;9.26;91.84
46942;BME280;32676;52.630;4.896;2023-02-18T06:31:55;103057.97;;;9.26;91.70
46942;BME280;32676;52.630;4.896;2023-02-18T06:34:22;103062.38;;;9.27;91.64
46942;BME280;32676;52.630;4.896;2023-02-18T06:36:48;103063.22;;;9.26;91.94
46942;BME280;32676;52.630;4.896;2023-02-18T06:39:15;103057.09;;;9.25;91.83
46942;BME280;32676;52.630;4.896;2023-02-18T06:41:41;103050.97;;;9.25;91.76
46942;BME280;32676;52.630;4.896;2023-02-18T06:44:08;103050.97;;;9.23;91.81
46942;BME280;32676;52.630;4.896;2023-02-18T06:46:36;103049.22;;;9.23;92.02
46942;BME280;32676;52.630;4.896;2023-02-18T06:49:03;103047.47;;;9.22;91.90
46942;BME280;32676;52.630;4.896;2023-02-18T06:51:29;103042.22;;;9.22;91.91
46942;BME280;32676;52.630;4.896;2023-02-18T06:53:56;103045.69;;;9.21;92.01
46942;BME280;32676;52.630;4.896;2023-02-18T06:56:22;103032.56;;;9.17;91.88
46942;BME280;32676;52.630;4.896;2023-02-18T06:58:49;103026.44;;;9.19;92.06
46942;BME280;32676;52.630;4.896;2023-02-18T07:01:15;103029.06;;;9.19;92.03
46942;BME280;32676;52.630;4.896;2023-02-18T07:03:43;103024.69;;;9.18;92.00
46942;BME280;32676;52.630;4.896;2023-02-18T07:06:10;103027.31;;;9.20;91.93
46942;BME280;32676;52.630;4.896;2023-02-18T07:08:36;103029.06;;;9.19;91.97
46942;BME280;32676;52.630;4.896;2023-02-18T07:11:03;103021.16;;;9.16;92.13
46942;BME280;32676;52.630;4.896;2023-02-18T07:13:30;103028.22;;;9.20;92.03
46942;BME280;32676;52.630;4.896;2023-02-18T07:15:57;103035.22;;;9.21;91.98
46942;BME280;32676;52.630;4.896;2023-02-18T07:18:24;103050.97;;;9.25;91.97
46942;BME280;32676;52.630;4.896;2023-02-18T07:20:51;103065.03;;;9.30;92.04
46942;BME280;32676;52.630;4.896;2023-02-18T07:23:18;103079.03;;;9.35;91.84
46942;BME280;32676;52.630;4.896;2023-02-18T07:25:45;103093.06;;;9.35;91.78
46942;BME280;32676;52.630;4.896;2023-02-18T07:28:11;103105.31;;;9.38;91.41
46942;BME280;32676;52.630;4.896;2023-02-18T07:30:38;103107.97;;;9.39;91.24
46942;BME280;32676;52.630;4.896;2023-02-18T07:33:04;103093.03;;;9.34;91.18
46942;BME280;32676;52.630;4.896;2023-02-18T07:35:31;103095.69;;;9.37;90.77
46942;BME280;32676;52.630;4.896;2023-02-18T07:37:59;103087.78;;;9.34;90.60
46942;BME280;32676;52.630;4.896;2023-02-18T07:40:27;103092.19;;;9.36;90.40
46942;BME280;32676;52.630;4.896;2023-02-18T07:42:54;103093.94;;;9.36;90.21
46942;BME280;32676;52.630;4.896;2023-02-18T07:45:20;103095.69;;;9.37;90.25
46942;BME280;32676;52.630;4.896;2023-02-18T07:47:47;103101.84;;;9.39;90.02
46942;BME280;32676;52.630;4.896;2023-02-18T07:50:13;103103.59;;;9.40;89.87
46942;BME280;32676;52.630;4.896;2023-02-18T07:52:40;103094.81;;;9.38;90.14
46942;BME280;32676;52.630;4.896;2023-02-18T07:55:08;103093.94;;;9.37;90.12
46942;BME280;32676;52.630;4.896;2023-02-18T07:57:34;103094.81;;;9.38;90.18
46942;BME280;32676;52.630;4.896;2023-02-18T08:00:21;103111.47;;;9.41;89.89
46942;BME280;32676;52.630;4.896;2023-02-18T08:02:48;103115.88;;;9.44;89.85
46942;BME280;32676;52.630;4.896;2023-02-18T08:05:14;103133.41;;;9.47;89.64
46942;BME280;32676;52.630;4.896;2023-02-18T08:07:41;103137.78;;;9.49;89.32
46942;BME280;32676;52.630;4.896;2023-02-18T08:10:09;103143.91;;;9.51;89.12
46942;BME280;32676;52.630;4.896;2023-02-18T08:12:35;103149.16;;;9.51;88.82
46942;BME280;32676;52.630;4.896;2023-02-18T08:15:02;103157.97;;;9.53;88.71
46942;BME280;32676;52.630;4.896;2023-02-18T08:17:29;103163.22;;;9.53;88.18
46942;BME280;32676;52.630;4.896;2023-02-18T08:19:56;103171.97;;;9.55;87.93
46942;BME280;32676;52.630;4.896;2023-02-18T08:22:22;103189.50;;;9.59;87.90
46942;BME280;32676;52.630;4.896;2023-02-18T08:24:48;103205.31;;;9.66;87.64
46942;BME280;32676;52.630;4.896;2023-02-18T08:27:16;103217.59;;;9.68;87.24
46942;BME280;32676;52.630;4.896;2023-02-18T08:29:43;103222.78;;;9.64;87.21
46942;BME280;32676;52.630;4.896;2023-02-18T08:32:09;103225.50;;;9.71;86.58
46942;BME280;32676;52.630;4.896;2023-02-18T08:34:36;103228.13;;;9.70;86.43
46942;BME280;32676;52.630;4.896;2023-02-18T08:37:03;103242.16;;;9.72;86.09
46942;BME280;32676;52.630;4.896;2023-02-18T08:39:33;103245.66;;;9.74;85.75
46942;BME280;32676;52.630;4.896;2023-02-18T08:41:59;103263.19;;;9.78;85.60
46942;BME280;32676;52.630;4.896;2023-02-18T08:44:27;103243.03;;;9.74;85.17
46942;BME280;32676;52.630;4.896;2023-02-18T08:46:54;103231.59;;;9.69;84.81
46942;BME280;32676;52.630;4.896;2023-02-18T08:49:20;103249.22;;;9.79;84.53
46942;BME280;32676;52.630;4.896;2023-02-18T08:51:48;103266.72;;;9.80;84.53
46942;BME280;32676;52.630;4.896;2023-02-18T08:54:15;103261.41;;;9.74;84.19
46942;BME280;32676;52.630;4.896;2023-02-18T08:56:42;103287.81;;;9.86;83.95
46942;BME280;32676;52.630;4.896;2023-02-18T08:59:09;103296.59;;;9.88;83.80
46942;BME280;32676;52.630;4.896;2023-02-18T09:01:37;103320.28;;;9.94;83.71
46942;BME280;32676;52.630;4.896;2023-02-18T09:04:04;103329.94;;;9.95;83.37
46942;BME280;32676;52.630;4.896;2023-02-18T09:06:30;103314.97;;;9.88;83.05
46942;BME280;32676;52.630;4.896;2023-02-18T09:08:57;103340.44;;;9.98;82.87
46942;BME280;32676;52.630;4.896;2023-02-18T09:11:23;103354.50;;;10.04;82.77
46942;BME280;32676;52.630;4.896;2023-02-18T09:13:50;103363.28;;;10.06;82.72
46942;BME280;32676;52.630;4.896;2023-02-18T09:16:17;103354.50;;;10.01;82.50
46942;BME280;32676;52.630;4.896;2023-02-18T09:18:46;103376.47;;;10.09;82.29
46942;BME280;32676;52.630;4.896;2023-02-18T09:21:14;103386.13;;;10.10;82.09
46942;BME280;32676;52.630;4.896;2023-02-18T09:23:41;103406.31;;;10.15;82.04
46942;BME280;32676;52.630;4.896;2023-02-18T09:26:10;103422.13;;;10.22;82.17
46942;BME280;32676;52.630;4.896;2023-02-18T09:28:38;103438.81;;;10.25;81.91
46942;BME280;32676;52.630;4.896;2023-02-18T09:31:06;103449.38;;;10.28;81.91
46942;BME280;32676;52.630;4.896;2023-02-18T09:33:34;103451.97;;;10.27;81.72
46942;BME280;32676;52.630;4.896;2023-02-18T09:36:03;103455.50;;;10.29;81.66
46942;BME280;32676;52.630;4.896;2023-02-18T09:38:30;103481.91;;;10.33;81.31
46942;BME280;32676;52.630;4.896;2023-02-18T09:40:56;103505.66;;;10.43;81.44
46942;BME280;32676;52.630;4.896;2023-02-18T09:43:28;103519.66;;;10.43;81.41
46942;BME280;32676;52.630;4.896;2023-02-18T09:45:57;103535.47;;;10.45;80.97
46942;BME280;32676;52.630;4.896;2023-02-18T09:48:27;103519.47;;;10.29;81.10
46942;BME280;32676;52.630;4.896;2023-02-18T09:50:53;103589.94;;;10.58;80.99
46942;BME280;32676;52.630;4.896;2023-02-18T09:53:22;103588.16;;;10.54;80.78
46942;BME280;32676;52.630;4.896;2023-02-18T09:55:51;103628.69;;;10.71;80.60
46942;BME280;32676;52.630;4.896;2023-02-18T09:58:21;103628.69;;;10.71;80.37
46942;BME280;32676;52.630;4.896;2023-02-18T10:00:51;103636.56;;;10.73;80.49
46942;BME280;32676;52.630;4.896;2023-02-18T10:03:20;103648.03;;;10.76;80.66
46942;BME280;32676;52.630;4.896;2023-02-18T10:05:55;103648.03;;;10.76;80.45
46942;BME280;32676;52.630;4.896;2023-02-18T10:08:26;103612.91;;;10.71;80.30
46942;BME280;32676;52.630;4.896;2023-02-18T10:10:54;103621.69;;;10.72;80.29
46942;BME280;32676;52.630;4.896;2023-02-18T10:13:23;103618.19;;;10.71;80.12
46942;BME280;32676;52.630;4.896;2023-02-18T10:15:51;103608.47;;;10.69;80.25
46942;BME280;32676;52.630;4.896;2023-02-18T10:18:26;103609.34;;;10.69;80.19
46942;BME280;32676;52.630;4.896;2023-02-18T10:21:00;103620.75;;;10.68;80.33
46942;BME280;32676;52.630;4.896;2023-02-18T10:23:32;103635.75;;;10.75;80.50
46942;BME280;32676;52.630;4.896;2023-02-18T10:26:02;103651.56;;;10.79;80.29
46942;BME280;32676;52.630;4.896;2023-02-18T10:28:32;103696.44;;;10.91;80.33
46942;BME280;32676;52.630;4.896;2023-02-18T10:31:04;103706.13;;;10.95;80.23
46942;BME280;32676;52.630;4.896;2023-02-18T10:33:41;103723.72;;;10.99;79.99
46942;BME280;32676;52.630;4.896;2023-02-18T10:36:24;103751.00;;;11.04;80.05
46942;BME280;32676;52.630;4.896;2023-02-18T10:39:09;103763.25;;;11.04;80.06
46942;BME280;32676;52.630;4.896;2023-02-18T10:41:44;103804.66;;;11.16;79.92
46942;BME280;32676;52.630;4.896;2023-02-18T10:44:20;103811.66;;;11.17;79.75
46942;BME280;32676;52.630;4.896;2023-02-18T10:46:57;103831.94;;;11.24;79.78
46942;BME280;32676;52.630;4.896;2023-02-18T10:49:46;103873.31;;;11.34;79.34
46942;BME280;32676;52.630;4.896;2023-02-18T10:52:18;103912.03;;;11.41;79.57
46942;BME280;32676;52.630;4.896;2023-02-18T10:54:53;103934.97;;;11.48;79.60
46942;BME280;32676;52.630;4.896;2023-02-18T10:57:24;103954.25;;;11.47;79.27
46942;BME280;32676;52.630;4.896;2023-02-18T10:59:58;103939.34;;;11.48;79.07
46942;BME280;32676;52.630;4.896;2023-02-18T11:02:27;103929.69;;;11.48;79.26
46942;BME280;32676;52.630;4.896;2023-02-18T11:04:56;103943.78;;;11.52;79.22
46942;BME280;32676;52.630;4.896;2023-02-18T11:07:27;103995.72;;;11.62;79.47
46942;BME280;32676;52.630;4.896;2023-02-18T11:09:57;104011.59;;;11.67;79.29
46942;BME280;32676;52.630;4.896;2023-02-18T11:12:28;104023.06;;;11.70;79.21
46942;BME280;32676;52.630;4.896;2023-02-18T11:15:15;104065.38;;;11.81;78.92
46942;BME280;32676;52.630;4.896;2023-02-18T11:17:44;104075.91;;;11.81;78.92
46942;BME280;32676;52.630;4.896;2023-02-18T11:20:25;104111.13;;;11.86;78.86
46942;BME280;32676;52.630;4.896;2023-02-18T11:22:57;104132.41;;;11.99;78.78
46942;BME280;32676;52.630;4.896;2023-02-18T11:25:26;104162.38;;;12.04;78.20
46942;BME280;32676;52.630;4.896;2023-02-18T11:27:55;104198.50;;;12.11;78.31
46942;BME280;32676;52.630;4.896;2023-02-18T11:30:23;104225.88;;;12.18;78.10
46942;BME280;32676;52.630;4.896;2023-02-18T11:32:55;104216.94;;;12.08;78.17
46942;BME280;32676;52.630;4.896;2023-02-18T11:35:27;104236.47;;;12.22;77.60
46942;BME280;32676;52.630;4.896;2023-02-18T11:37:55;104229.44;;;12.21;77.98
46942;BME280;32676;52.630;4.896;2023-02-18T11:40:27;104220.63;;;12.19;78.02
46942;BME280;32676;52.630;4.896;2023-02-18T11:43:03;104161.44;;;12.00;77.92
46942;BME280;32676;52.630;4.896;2023-02-18T11:45:30;104156.28;;;12.06;77.88
46942;BME280;32676;52.630;4.896;2023-02-18T11:47:59;104137.75;;;12.02;77.97
46942;BME280;32676;52.630;4.896;2023-02-18T11:50:29;104121.88;;;11.99;77.93
46942;BME280;32676;52.630;4.896;2023-02-18T11:52:58;104091.91;;;11.90;78.36
46942;BME280;32676;52.630;4.896;2023-02-18T11:55:28;104090.16;;;11.93;78.56
46942;BME280;32676;52.630;4.896;2023-02-18T11:57:58;104083.16;;;11.92;78.70
46942;BME280;32676;52.630;4.896;2023-02-18T12:00:36;104081.34;;;11.90;78.41
46942;BME280;32676;52.630;4.896;2023-02-18T12:03:07;104054.84;;;11.81;78.61
46942;BME280;32676;52.630;4.896;2023-02-18T12:05:38;104050.50;;;11.85;78.37
46942;BME280;32676;52.630;4.896;2023-02-18T12:08:10;104038.16;;;11.82;78.65
46942;BME280;32676;52.630;4.896;2023-02-18T12:10:43;104039.03;;;11.81;78.64
46942;BME280;32676;52.630;4.896;2023-02-18T12:13:21;104060.19;;;11.87;78.87
46942;BME280;32676;52.630;4.896;2023-02-18T12:15:54;104078.78;;;11.94;78.77
46942;BME280;32676;52.630;4.896;2023-02-18T12:18:46;104102.53;;;11.98;78.81
46942;BME280;32676;52.630;4.896;2023-02-18T12:21:27;104102.56;;;12.00;78.75
46942;BME280;32676;52.630;4.896;2023-02-18T12:23:58;104098.16;;;11.97;78.54
46942;BME280;32676;52.630;4.896;2023-02-18T12:26:37;104088.44;;;11.95;78.50
46942;BME280;32676;52.630;4.896;2023-02-18T12:29:19;104100.78;;;11.99;78.50
46942;BME280;32676;52.630;4.896;2023-02-18T12:32:11;104104.34;;;12.01;78.70
46942;BME280;32676;52.630;4.896;2023-02-18T12:34:59;104126.38;;;12.06;78.71
46942;BME280;32676;52.630;4.896;2023-02-18T12:37:48;104157.25;;;12.15;78.65
46942;BME280;32676;52.630;4.896;2023-02-18T12:40:46;104164.31;;;12.16;78.50
46942;BME280;32676;52.630;4.896;2023-02-18T12:43:25;104151.97;;;12.13;78.29
46942;BME280;32676;52.630;4.896;2023-02-18T12:49:14;104164.34;;;12.17;78.50
46942;BME280;32676;52.630;4.896;2023-02-18T12:51:57;104147.56;;;12.12;78.60
46942;BME280;32676;52.630;4.896;2023-02-18T12:54:46;104141.41;;;12.13;78.61
46942;BME280;32676;52.630;4.896;2023-02-18T12:57:24;104143.19;;;12.13;78.24
46942;BME280;32676;52.630;4.896;2023-02-18T13:00:10;104159.06;;;12.17;78.37
46942;BME280;32676;52.630;4.896;2023-02-18T13:02:58;104135.19;;;12.06;78.42
46942;BME280;32676;52.630;4.896;2023-02-18T13:05:39;104159.06;;;12.17;78.58
46942;BME280;32676;52.630;4.896;2023-02-18T13:08:25;104189.06;;;12.25;78.20
46942;BME280;32676;52.630;4.896;2023-02-18T13:11:04;104187.31;;;12.24;78.12
46942;BME280;32676;52.630;4.896;2023-02-18T13:13:38;104215.50;;;12.30;78.16
46942;BME280;32676;52.630;4.896;2023-02-18T13:16:10;104217.28;;;12.33;78.08
46942;BME280;32676;52.630;4.896;2023-02-18T13:18:41;104211.16;;;12.32;77.84
46942;BME280;32676;52.630;4.896;2023-02-18T13:21:11;104196.97;;;12.25;77.70
46942;BME280;32676;52.630;4.896;2023-02-18T13:23:47;104212.03;;;12.33;77.71